Huvudsida
METAR-TAF:

METAR-TAF

Flygplatser :

Sarajevos internationella flygplats

Sarajevo, Bosnien och Hercegovina

latitud: 43-49N, longitud: 018-20E, höjd: 511 m

Aktuellt väderrapport

Denna rapport gjordes för 33 minuter sedan, klockan 09:00 UTC
Vind 4 kt från nord/nordväst, varierande mellan väst och nordost
Temperatur 19°C
Fuktighet 49%
Tryck 1016 hPa
Sikt 10 km eller mer
Få moln på en höjd av 5000 ft

METAR: LQSA 250900Z 33004KT 260V050 9999 FEW050 19/08 Q1016 NOSIG

Tid: 11:33 (09:33 UTC)

Väderprognos

Denna rapport gjordes för 4 timmar och 33 minuter sedan, klockan 05:00 UTC
Prognos gäller från 25 kl. 06 UTC till 26 kl. 06 UTC
Vind 2 kt varierande vindriktning
Sikt 10 km eller mer
Inga moln under 1 500 m eller inga cumulonimbus

TAF: LQSA 250500Z 2506/2606 VRB02KT CAVOK TX25/2514Z TN10/2604Z

Aktuella väderrapporter och prognoser från 4000 flygplatser (METAR- och TAF-rapporter).

De tillgängliga stationerna syns som gula och röda prickar på kartan.

För musen över prickarna för att se namnen på stationerna.

Klicka sedan för att få väderrapporter och prognoser.

För att ändra kartan: Klicka på de gröna knapparna med ett svart kors på för att zooma in; den gröna knappen med ett streck på för att zooma ut; eller på de gröna pilarna för angränsande kartor.


METAR-TAF: